sensor_id;sensor_type;location;lat;lon;timestamp;pressure;altitude;pressure_sealevel;temperature;humidity
55656;BME280;41530;52.382;5.270;2023-04-09T00:01:32;102885.53;;;18.29;47.64
55656;BME280;41530;52.382;5.270;2023-04-09T00:03:59;102890.75;;;18.30;47.57
55656;BME280;41530;52.382;5.270;2023-04-09T00:06:26;102883.63;;;18.31;47.53
55656;BME280;41530;52.382;5.270;2023-04-09T00:08:52;102884.59;;;18.30;47.53
55656;BME280;41530;52.382;5.270;2023-04-09T00:11:19;102884.47;;;18.31;47.42
55656;BME280;41530;52.382;5.270;2023-04-09T00:13:47;102875.84;;;18.28;47.47
55656;BME280;41530;52.382;5.270;2023-04-09T00:16:13;102878.28;;;18.31;47.53
55656;BME280;41530;52.382;5.270;2023-04-09T00:18:40;102881.28;;;18.26;47.58
55656;BME280;41530;52.382;5.270;2023-04-09T00:21:07;102887.25;;;18.30;47.46
55656;BME280;41530;52.382;5.270;2023-04-09T00:23:34;102875.84;;;18.28;47.61
55656;BME280;41530;52.382;5.270;2023-04-09T00:26:01;102874.03;;;18.28;47.74
55656;BME280;41530;52.382;5.270;2023-04-09T00:28:28;102866.88;;;18.29;47.54
55656;BME280;41530;52.382;5.270;2023-04-09T00:30:55;102868.91;;;18.25;47.49
55656;BME280;41530;52.382;5.270;2023-04-09T00:33:22;102860.06;;;18.25;47.58
55656;BME280;41530;52.382;5.270;2023-04-09T00:35:49;102874.13;;;18.27;47.52
55656;BME280;41530;52.382;5.270;2023-04-09T00:38:15;102862.63;;;18.26;47.46
55656;BME280;41530;52.382;5.270;2023-04-09T00:40:42;102873.28;;;18.26;47.56
55656;BME280;41530;52.382;5.270;2023-04-09T00:43:09;102868.91;;;18.25;47.51
55656;BME280;41530;52.382;5.270;2023-04-09T00:45:36;102855.94;;;18.21;47.62
55656;BME280;41530;52.382;5.270;2023-04-09T00:48:03;102857.53;;;18.23;47.65
55656;BME280;41530;52.382;5.270;2023-04-09T00:50:30;102857.63;;;18.22;47.53
55656;BME280;41530;52.382;5.270;2023-04-09T00:52:56;102859.34;;;18.23;47.62
55656;BME280;41530;52.382;5.270;2023-04-09T00:55:23;102856.78;;;18.21;47.62
55656;BME280;41530;52.382;5.270;2023-04-09T00:57:50;102856.88;;;18.20;47.61
55656;BME280;41530;52.382;5.270;2023-04-09T01:00:17;102845.38;;;18.19;47.56
55656;BME280;41530;52.382;5.270;2023-04-09T01:02:44;102852.19;;;18.23;47.46
55656;BME280;41530;52.382;5.270;2023-04-09T01:05:11;102847.09;;;18.20;47.55
55656;BME280;41530;52.382;5.270;2023-04-09T01:11:01;102841.00;;;18.18;47.58
55656;BME280;41530;52.382;5.270;2023-04-09T01:13:41;102843.78;;;18.16;47.47
55656;BME280;41530;52.382;5.270;2023-04-09T01:16:11;102846.34;;;18.18;47.53
55656;BME280;41530;52.382;5.270;2023-04-09T01:18:50;102843.88;;;18.15;47.49
55656;BME280;41530;52.382;5.270;2023-04-09T01:21:23;102837.59;;;18.16;47.46
55656;BME280;41530;52.382;5.270;2023-04-09T01:27:02;102841.09;;;18.16;47.50
55656;BME280;41530;52.382;5.270;2023-04-09T01:29:32;102781.25;;;17.84;47.59
55656;BME280;41530;52.382;5.270;2023-04-09T01:32:01;102834.94;;;18.16;47.49
55656;BME280;41530;52.382;5.270;2023-04-09T01:36:58;102843.03;;;18.14;47.64
55656;BME280;41530;52.382;5.270;2023-04-09T01:39:26;102832.38;;;18.14;47.62
55656;BME280;41530;52.382;5.270;2023-04-09T01:41:54;102827.03;;;18.14;47.56
55656;BME280;41530;52.382;5.270;2023-04-09T01:44:25;102826.19;;;18.14;47.55
55656;BME280;41530;52.382;5.270;2023-04-09T01:46:53;102833.31;;;18.13;47.76
55656;BME280;41530;52.382;5.270;2023-04-09T01:49:20;102831.63;;;18.12;47.47
55656;BME280;41530;52.382;5.270;2023-04-09T01:51:47;102830.66;;;18.13;47.58
55656;BME280;41530;52.382;5.270;2023-04-09T01:54:15;102826.28;;;18.12;47.50
55656;BME280;41530;52.382;5.270;2023-04-09T01:56:44;102820.09;;;18.12;47.45
55656;BME280;41530;52.382;5.270;2023-04-09T01:59:11;102828.94;;;18.12;47.55
55656;BME280;41530;52.382;5.270;2023-04-09T02:01:43;102819.25;;;18.11;47.52
55656;BME280;41530;52.382;5.270;2023-04-09T02:04:22;102822.78;;;18.12;47.52
55656;BME280;41530;52.382;5.270;2023-04-09T02:06:58;102829.06;;;18.11;47.60
55656;BME280;41530;52.382;5.270;2023-04-09T02:09:31;102826.38;;;18.11;47.73
55656;BME280;41530;52.382;5.270;2023-04-09T02:12:03;102824.72;;;18.10;47.63
55656;BME280;41530;52.382;5.270;2023-04-09T02:14:31;102826.38;;;18.11;47.51
55656;BME280;41530;52.382;5.270;2023-04-09T02:16:59;102816.72;;;18.10;47.60
55656;BME280;41530;52.382;5.270;2023-04-09T02:19:43;102813.22;;;18.09;47.56
55656;BME280;41530;52.382;5.270;2023-04-09T02:22:10;102819.50;;;18.08;47.55
55656;BME280;41530;52.382;5.270;2023-04-09T02:24:38;102815.97;;;18.08;47.57
55656;BME280;41530;52.382;5.270;2023-04-09T02:27:06;102821.41;;;18.06;47.55
55656;BME280;41530;52.382;5.270;2023-04-09T02:29:33;102823.13;;;18.07;47.48
55656;BME280;41530;52.382;5.270;2023-04-09T02:31:59;102818.63;;;18.08;47.48
55656;BME280;41530;52.382;5.270;2023-04-09T02:34:26;102817.78;;;18.07;47.60
55656;BME280;41530;52.382;5.270;2023-04-09T02:36:53;102822.25;;;18.07;47.37
55656;BME280;41530;52.382;5.270;2023-04-09T02:39:19;102818.75;;;18.06;47.58
55656;BME280;41530;52.382;5.270;2023-04-09T02:41:46;102813.53;;;18.05;47.61
55656;BME280;41530;52.382;5.270;2023-04-09T02:44:13;102815.31;;;18.04;47.57
55656;BME280;41530;52.382;5.270;2023-04-09T02:46:39;102810.00;;;18.04;47.47
55656;BME280;41530;52.382;5.270;2023-04-09T02:49:07;102808.19;;;18.05;47.48
55656;BME280;41530;52.382;5.270;2023-04-09T02:51:34;102808.19;;;18.05;47.48
55656;BME280;41530;52.382;5.270;2023-04-09T02:54:02;102809.16;;;18.04;47.46
55656;BME280;41530;52.382;5.270;2023-04-09T02:56:28;102809.91;;;18.06;47.75
55656;BME280;41530;52.382;5.270;2023-04-09T02:58:55;102813.31;;;18.08;47.89
55656;BME280;41530;52.382;5.270;2023-04-09T03:01:22;102807.88;;;18.09;47.79
55656;BME280;41530;52.382;5.270;2023-04-09T03:03:49;102802.56;;;18.09;47.79
55656;BME280;41530;52.382;5.270;2023-04-09T03:06:15;102800.75;;;18.10;47.61
55656;BME280;41530;52.382;5.270;2023-04-09T03:08:43;102799.03;;;18.09;47.69
55656;BME280;41530;52.382;5.270;2023-04-09T03:11:10;102794.78;;;18.06;47.65
55656;BME280;41530;52.382;5.270;2023-04-09T03:13:37;102798.41;;;18.05;47.69
55656;BME280;41530;52.382;5.270;2023-04-09T03:16:03;102800.19;;;18.05;47.60
55656;BME280;41530;52.382;5.270;2023-04-09T03:18:30;102797.66;;;18.03;47.52
55656;BME280;41530;52.382;5.270;2023-04-09T03:20:57;102796.78;;;18.03;47.51
55656;BME280;41530;52.382;5.270;2023-04-09T03:23:24;102796.91;;;18.01;47.59
55656;BME280;41530;52.382;5.270;2023-04-09T03:26:02;102796.16;;;17.99;47.52
55656;BME280;41530;52.382;5.270;2023-04-09T03:28:30;102790.09;;;17.97;47.59
55656;BME280;41530;52.382;5.270;2023-04-09T03:30:57;102783.16;;;17.95;47.50
55656;BME280;41530;52.382;5.270;2023-04-09T03:33:23;102784.03;;;17.95;47.45
55656;BME280;41530;52.382;5.270;2023-04-09T03:35:51;102781.38;;;17.95;47.43
55656;BME280;41530;52.382;5.270;2023-04-09T03:38:17;102778.69;;;17.95;47.97
55656;BME280;41530;52.382;5.270;2023-04-09T03:40:44;102775.94;;;17.97;47.83
55656;BME280;41530;52.382;5.270;2023-04-09T03:43:11;102780.16;;;17.99;48.16
55656;BME280;41530;52.382;5.270;2023-04-09T03:45:38;102781.75;;;18.02;48.27
55656;BME280;41530;52.382;5.270;2023-04-09T03:48:04;102779.09;;;18.02;48.44
55656;BME280;41530;52.382;5.270;2023-04-09T03:50:37;102780.81;;;18.03;48.54
55656;BME280;41530;52.382;5.270;2023-04-09T03:53:03;102779.84;;;18.04;48.84
55656;BME280;41530;52.382;5.270;2023-04-09T03:55:30;102770.91;;;18.05;48.71
55656;BME280;41530;52.382;5.270;2023-04-09T03:57:56;102772.59;;;18.06;48.80
55656;BME280;41530;52.382;5.270;2023-04-09T04:00:23;102761.94;;;18.06;48.87
55656;BME280;41530;52.382;5.270;2023-04-09T04:02:50;102766.31;;;18.07;48.65
55656;BME280;41530;52.382;5.270;2023-04-09T04:05:17;102771.66;;;18.07;48.76
55656;BME280;41530;52.382;5.270;2023-04-09T04:07:44;102774.22;;;18.08;48.92
55656;BME280;41530;52.382;5.270;2023-04-09T04:10:10;102770.69;;;18.08;49.04
55656;BME280;41530;52.382;5.270;2023-04-09T04:12:37;102768.78;;;18.10;48.86
55656;BME280;41530;52.382;5.270;2023-04-09T04:15:04;102762.69;;;18.08;48.58
55656;BME280;41530;52.382;5.270;2023-04-09T04:17:30;102757.28;;;18.09;49.06
55656;BME280;41530;52.382;5.270;2023-04-09T04:19:57;102758.13;;;18.10;48.83
55656;BME280;41530;52.382;5.270;2023-04-09T04:22:23;102758.97;;;18.10;48.78
55656;BME280;41530;52.382;5.270;2023-04-09T04:24:51;102759.94;;;18.09;48.75
55656;BME280;41530;52.382;5.270;2023-04-09T04:27:18;102757.13;;;18.11;48.81
55656;BME280;41530;52.382;5.270;2023-04-09T04:29:44;102762.47;;;18.11;48.75
55656;BME280;41530;52.382;5.270;2023-04-09T04:32:11;102753.66;;;18.10;48.88
55656;BME280;41530;52.382;5.270;2023-04-09T04:34:37;102758.00;;;18.11;48.76
55656;BME280;41530;52.382;5.270;2023-04-09T04:37:04;102753.50;;;18.12;48.81
55656;BME280;41530;52.382;5.270;2023-04-09T04:39:31;102750.84;;;18.12;48.85
55656;BME280;41530;52.382;5.270;2023-04-09T04:41:57;102751.81;;;18.11;48.85
55656;BME280;41530;52.382;5.270;2023-04-09T04:44:24;102758.00;;;18.11;49.11
55656;BME280;41530;52.382;5.270;2023-04-09T04:46:50;102752.66;;;18.11;49.10
55656;BME280;41530;52.382;5.270;2023-04-09T04:49:17;102760.66;;;18.11;48.80
55656;BME280;41530;52.382;5.270;2023-04-09T04:51:43;102752.66;;;18.11;48.87
55656;BME280;41530;52.382;5.270;2023-04-09T04:54:10;102761.50;;;18.12;49.00
55656;BME280;41530;52.382;5.270;2023-04-09T04:56:36;102761.50;;;18.12;48.73
55656;BME280;41530;52.382;5.270;2023-04-09T04:59:03;102759.69;;;18.12;48.90
55656;BME280;41530;52.382;5.270;2023-04-09T05:01:30;102758.84;;;18.12;49.00
55656;BME280;41530;52.382;5.270;2023-04-09T05:03:56;102758.84;;;18.12;48.79
55656;BME280;41530;52.382;5.270;2023-04-09T05:06:23;102765.03;;;18.12;48.79
55656;BME280;41530;52.382;5.270;2023-04-09T05:08:50;102765.88;;;18.13;48.64
55656;BME280;41530;52.382;5.270;2023-04-09T05:11:17;102772.06;;;18.13;48.91
55656;BME280;41530;52.382;5.270;2023-04-09T05:13:43;102764.16;;;18.12;48.91
55656;BME280;41530;52.382;5.270;2023-04-09T05:16:17;102770.34;;;18.12;49.06
55656;BME280;41530;52.382;5.270;2023-04-09T05:18:45;102768.53;;;18.13;49.10
55656;BME280;41530;52.382;5.270;2023-04-09T05:21:11;102757.88;;;18.13;48.89
55656;BME280;41530;52.382;5.270;2023-04-09T05:23:38;102764.06;;;18.13;49.15
55656;BME280;41530;52.382;5.270;2023-04-09T05:26:05;102761.50;;;18.12;48.98
55656;BME280;41530;52.382;5.270;2023-04-09T05:28:31;102770.34;;;18.12;48.58
55656;BME280;41530;52.382;5.270;2023-04-09T05:30:58;102767.69;;;18.12;48.67
55656;BME280;41530;52.382;5.270;2023-04-09T05:33:25;102767.69;;;18.12;48.80
55656;BME280;41530;52.382;5.270;2023-04-09T05:35:51;102766.81;;;18.12;48.69
55656;BME280;41530;52.382;5.270;2023-04-09T05:38:18;102768.53;;;18.13;48.77
55656;BME280;41530;52.382;5.270;2023-04-09T05:40:44;102778.34;;;18.12;48.93
55656;BME280;41530;52.382;5.270;2023-04-09T05:43:11;102772.16;;;18.12;48.92
55656;BME280;41530;52.382;5.270;2023-04-09T05:45:38;102772.16;;;18.12;49.14
55656;BME280;41530;52.382;5.270;2023-04-09T05:48:04;102772.16;;;18.12;48.90
55656;BME280;41530;52.382;5.270;2023-04-09T05:50:31;102778.34;;;18.12;48.89
55656;BME280;41530;52.382;5.270;2023-04-09T05:53:12;102777.38;;;18.13;49.00
55656;BME280;41530;52.382;5.270;2023-04-09T05:55:39;102781.00;;;18.12;48.61
55656;BME280;41530;52.382;5.270;2023-04-09T05:58:06;102782.72;;;18.13;49.13
55656;BME280;41530;52.382;5.270;2023-04-09T06:00:32;102775.66;;;18.12;48.87
55656;BME280;41530;52.382;5.270;2023-04-09T06:02:59;102774.81;;;18.12;49.18
55656;BME280;41530;52.382;5.270;2023-04-09T06:05:26;102775.66;;;18.12;48.71
55656;BME280;41530;52.382;5.270;2023-04-09T06:07:53;102778.34;;;18.12;48.66
55656;BME280;41530;52.382;5.270;2023-04-09T06:10:20;102777.47;;;18.12;48.74
55656;BME280;41530;52.382;5.270;2023-04-09T06:12:47;102784.53;;;18.13;48.73
55656;BME280;41530;52.382;5.270;2023-04-09T06:15:13;102787.28;;;18.11;48.86
55656;BME280;41530;52.382;5.270;2023-04-09T06:17:40;102781.84;;;18.13;48.61
55656;BME280;41530;52.382;5.270;2023-04-09T06:20:07;102783.66;;;18.12;48.84
55656;BME280;41530;52.382;5.270;2023-04-09T06:22:33;102789.84;;;18.13;48.79
55656;BME280;41530;52.382;5.270;2023-04-09T06:25:00;102799.66;;;18.12;48.83
55656;BME280;41530;52.382;5.270;2023-04-09T06:27:27;102793.47;;;18.12;48.88
55656;BME280;41530;52.382;5.270;2023-04-09T06:29:53;102794.22;;;18.14;48.67
55656;BME280;41530;52.382;5.270;2023-04-09T06:32:20;102792.50;;;18.13;48.67
55656;BME280;41530;52.382;5.270;2023-04-09T06:34:47;102795.16;;;18.13;48.74
55656;BME280;41530;52.382;5.270;2023-04-09T06:37:13;102794.31;;;18.12;48.71
55656;BME280;41530;52.382;5.270;2023-04-09T06:39:40;102798.78;;;18.12;49.04
55656;BME280;41530;52.382;5.270;2023-04-09T06:42:23;102797.94;;;18.11;48.87
55656;BME280;41530;52.382;5.270;2023-04-09T06:44:50;102791.66;;;18.12;48.79
55656;BME280;41530;52.382;5.270;2023-04-09T06:47:16;102797.84;;;18.13;48.96
55656;BME280;41530;52.382;5.270;2023-04-09T06:49:43;102799.66;;;18.12;48.89
55656;BME280;41530;52.382;5.270;2023-04-09T06:52:10;102796.13;;;18.12;48.84
55656;BME280;41530;52.382;5.270;2023-04-09T06:54:36;102796.13;;;18.12;48.70
55656;BME280;41530;52.382;5.270;2023-04-09T06:57:03;102797.84;;;18.13;48.76
55656;BME280;41530;52.382;5.270;2023-04-09T06:59:29;102802.31;;;18.12;48.76
55656;BME280;41530;52.382;5.270;2023-04-09T07:01:56;102798.78;;;18.12;48.84
55656;BME280;41530;52.382;5.270;2023-04-09T07:04:23;102802.31;;;18.12;48.85
55656;BME280;41530;52.382;5.270;2023-04-09T07:06:49;102798.78;;;18.12;48.81
55656;BME280;41530;52.382;5.270;2023-04-09T07:09:18;102799.66;;;18.12;48.75
55656;BME280;41530;52.382;5.270;2023-04-09T07:11:44;102799.66;;;18.12;48.98
55656;BME280;41530;52.382;5.270;2023-04-09T07:14:11;102798.78;;;18.12;48.79
55656;BME280;41530;52.382;5.270;2023-04-09T07:16:37;102806.78;;;18.12;48.76
55656;BME280;41530;52.382;5.270;2023-04-09T07:19:04;102807.63;;;18.12;48.89
55656;BME280;41530;52.382;5.270;2023-04-09T07:21:32;102807.63;;;18.12;48.85
55656;BME280;41530;52.382;5.270;2023-04-09T07:23:59;102807.03;;;18.09;48.84
55656;BME280;41530;52.382;5.270;2023-04-09T07:26:26;102807.63;;;18.12;48.86
55656;BME280;41530;52.382;5.270;2023-04-09T07:28:52;102808.59;;;18.11;49.00
55656;BME280;41530;52.382;5.270;2023-04-09T07:31:19;102812.13;;;18.12;48.81
55656;BME280;41530;52.382;5.270;2023-04-09T07:33:45;102806.69;;;18.13;48.87
55656;BME280;41530;52.382;5.270;2023-04-09T07:36:12;102806.78;;;18.12;48.82
55656;BME280;41530;52.382;5.270;2023-04-09T07:38:39;102807.63;;;18.12;48.96
55656;BME280;41530;52.382;5.270;2023-04-09T07:41:05;102808.50;;;18.13;48.97
55656;BME280;41530;52.382;5.270;2023-04-09T07:43:32;102810.31;;;18.12;48.76
55656;BME280;41530;52.382;5.270;2023-04-09T07:45:58;102804.03;;;18.13;48.79
55656;BME280;41530;52.382;5.270;2023-04-09T07:48:25;102804.13;;;18.12;49.01
55656;BME280;41530;52.382;5.270;2023-04-09T07:50:53;102803.41;;;18.10;49.21
55656;BME280;41530;52.382;5.270;2023-04-09T07:53:20;102809.34;;;18.13;48.83
55656;BME280;41530;52.382;5.270;2023-04-09T07:55:46;102803.16;;;18.13;48.99
55656;BME280;41530;52.382;5.270;2023-04-09T07:58:13;102809.34;;;18.13;49.18
55656;BME280;41530;52.382;5.270;2023-04-09T08:00:39;102805.72;;;18.14;48.84
55656;BME280;41530;52.382;5.270;2023-04-09T08:03:06;102800.41;;;18.14;48.87
55656;BME280;41530;52.382;5.270;2023-04-09T08:05:34;102809.25;;;18.15;48.84
55656;BME280;41530;52.382;5.270;2023-04-09T08:08:01;102800.41;;;18.14;48.78
55656;BME280;41530;52.382;5.270;2023-04-09T08:10:28;102807.44;;;18.15;48.85
55656;BME280;41530;52.382;5.270;2023-04-09T08:12:54;102805.63;;;18.16;48.74
55656;BME280;41530;52.382;5.270;2023-04-09T08:15:21;102796.78;;;18.15;49.24
55656;BME280;41530;52.382;5.270;2023-04-09T08:17:47;102810.84;;;18.17;48.99
55656;BME280;41530;52.382;5.270;2023-04-09T08:20:14;102801.16;;;18.16;49.15
55656;BME280;41530;52.382;5.270;2023-04-09T08:22:42;102802.84;;;18.17;48.83
55656;BME280;41530;52.382;5.270;2023-04-09T08:25:09;102800.94;;;18.20;48.71
55656;BME280;41530;52.382;5.270;2023-04-09T08:27:35;102803.59;;;18.20;48.82
55656;BME280;41530;52.382;5.270;2023-04-09T08:30:02;102805.41;;;18.19;48.93
55656;BME280;41530;52.382;5.270;2023-04-09T08:32:29;102796.34;;;18.22;48.78
55656;BME280;41530;52.382;5.270;2023-04-09T08:34:56;102799.78;;;18.24;48.75
55656;BME280;41530;52.382;5.270;2023-04-09T08:37:23;102798.78;;;18.25;48.84
55656;BME280;41530;52.382;5.270;2023-04-09T08:39:50;102801.34;;;18.26;49.04
55656;BME280;41530;52.382;5.270;2023-04-09T08:42:18;102805.59;;;18.29;49.11
55656;BME280;41530;52.382;5.270;2023-04-09T08:44:45;102797.50;;;18.30;49.09
55656;BME280;41530;52.382;5.270;2023-04-09T08:47:12;102799.09;;;18.33;49.02
55656;BME280;41530;52.382;5.270;2023-04-09T08:49:39;102802.63;;;18.33;49.09
55656;BME280;41530;52.382;5.270;2023-04-09T08:52:08;102800.69;;;18.35;48.90
55656;BME280;41530;52.382;5.270;2023-04-09T08:54:35;102788.13;;;18.37;48.59
55656;BME280;41530;52.382;5.270;2023-04-09T08:57:05;102794.16;;;18.39;48.68
55656;BME280;41530;52.382;5.270;2023-04-09T08:59:32;102791.28;;;18.42;48.61
55656;BME280;41530;52.382;5.270;2023-04-09T09:02:09;102789.47;;;18.43;48.77
55656;BME280;41530;52.382;5.270;2023-04-09T09:04:48;102789.38;;;18.44;48.67
55656;BME280;41530;52.382;5.270;2023-04-09T09:07:16;102785.75;;;18.45;48.62
55656;BME280;41530;52.382;5.270;2023-04-09T09:09:52;102781.16;;;18.47;48.57
55656;BME280;41530;52.382;5.270;2023-04-09T09:12:35;102779.25;;;18.49;48.99
55656;BME280;41530;52.382;5.270;2023-04-09T09:15:05;102780.69;;;18.53;49.08
55656;BME280;41530;52.382;5.270;2023-04-09T09:17:53;102786.66;;;18.57;48.55
55656;BME280;41530;52.382;5.270;2023-04-09T09:20:21;102788.78;;;18.65;48.62
55656;BME280;41530;52.382;5.270;2023-04-09T09:22:52;102795.50;;;18.70;48.22
55656;BME280;41530;52.382;5.270;2023-04-09T09:25:21;102781.22;;;18.71;48.64
55656;BME280;41530;52.382;5.270;2023-04-09T09:27:51;102782.69;;;18.75;48.35
55656;BME280;41530;52.382;5.270;2023-04-09T09:30:24;102777.97;;;18.79;47.72
55656;BME280;41530;52.382;5.270;2023-04-09T09:35:30;102766.00;;;18.84;48.15
55656;BME280;41530;52.382;5.270;2023-04-09T09:38:01;102771.34;;;18.84;48.34
55656;BME280;41530;52.382;5.270;2023-04-09T09:40:29;102763.34;;;18.84;48.55
55656;BME280;41530;52.382;5.270;2023-04-09T09:42:56;102761.41;;;18.86;48.70
55656;BME280;41530;52.382;5.270;2023-04-09T09:45:24;102758.63;;;18.88;48.85
55656;BME280;41530;52.382;5.270;2023-04-09T09:47:52;102760.25;;;18.91;48.31
55656;BME280;41530;52.382;5.270;2023-04-09T09:50:22;102759.03;;;18.95;48.87
55656;BME280;41530;52.382;5.270;2023-04-09T09:52:55;102761.34;;;18.99;48.71
55656;BME280;41530;52.382;5.270;2023-04-09T09:55:26;102764.50;;;19.04;48.80
55656;BME280;41530;52.382;5.270;2023-04-09T09:57:54;102750.94;;;19.07;48.56
55656;BME280;41530;52.382;5.270;2023-04-09T10:00:22;102749.75;;;19.11;49.04
55656;BME280;41530;52.382;5.270;2023-04-09T10:03:00;102754.00;;;19.14;48.85
55656;BME280;41530;52.382;5.270;2023-04-09T10:05:31;102755.72;;;19.15;48.48
55656;BME280;41530;52.382;5.270;2023-04-09T10:08:01;102754.13;;;19.12;48.87
55656;BME280;41530;52.382;5.270;2023-04-09T10:10:28;102749.75;;;19.11;48.87
55656;BME280;41530;52.382;5.270;2023-04-09T10:12:56;102750.72;;;19.10;48.85
55656;BME280;41530;52.382;5.270;2023-04-09T10:15:24;102740.16;;;19.09;49.05
55656;BME280;41530;52.382;5.270;2023-04-09T10:17:51;102737.50;;;19.09;48.78
55656;BME280;41530;52.382;5.270;2023-04-09T10:20:25;102735.69;;;19.09;49.40
55656;BME280;41530;52.382;5.270;2023-04-09T10:22:53;102733.00;;;19.09;49.11
55656;BME280;41530;52.382;5.270;2023-04-09T10:25:20;102725.97;;;19.08;49.28
55656;BME280;41530;52.382;5.270;2023-04-09T10:27:59;102717.84;;;19.10;49.41
55656;BME280;41530;52.382;5.270;2023-04-09T10:30:34;102710.59;;;19.12;49.45
55656;BME280;41530;52.382;5.270;2023-04-09T10:33:28;102706.22;;;19.11;49.39
55656;BME280;41530;52.382;5.270;2023-04-09T10:35:59;102708.53;;;19.15;49.32
55656;BME280;41530;52.382;5.270;2023-04-09T10:38:33;102709.25;;;19.17;49.23
55656;BME280;41530;52.382;5.270;2023-04-09T10:41:09;102703.81;;;19.19;49.78
55656;BME280;41530;52.382;5.270;2023-04-09T10:43:38;102702.94;;;19.18;49.44
55656;BME280;41530;52.382;5.270;2023-04-09T10:46:07;102700.16;;;19.20;49.58
55656;BME280;41530;52.382;5.270;2023-04-09T10:49:27;102701.97;;;19.19;49.71
55656;BME280;41530;52.382;5.270;2023-04-09T10:52:13;102693.75;;;19.22;49.79
55656;BME280;41530;52.382;5.270;2023-04-09T10:54:43;102696.41;;;19.22;49.14
55656;BME280;41530;52.382;5.270;2023-04-09T10:59:50;102688.41;;;19.22;49.33
55656;BME280;41530;52.382;5.270;2023-04-09T11:05:20;102673.25;;;19.23;49.20
55656;BME280;41530;52.382;5.270;2023-04-09T11:10:31;102678.47;;;19.25;48.87
55656;BME280;41530;52.382;5.270;2023-04-09T11:12:58;102665.13;;;19.25;49.28
55656;BME280;41530;52.382;5.270;2023-04-09T11:15:25;102669.50;;;19.26;49.08
55656;BME280;41530;52.382;5.270;2023-04-09T11:17:52;102666.72;;;19.27;49.12
55656;BME280;41530;52.382;5.270;2023-04-09T11:20:22;102664.91;;;19.28;49.15
55656;BME280;41530;52.382;5.270;2023-04-09T11:22:54;102598.38;;;18.91;48.80
55656;BME280;41530;52.382;5.270;2023-04-09T11:32:42;102642.59;;;19.29;49.42
55656;BME280;41530;52.382;5.270;2023-04-09T11:36:06;102595.00;;;19.00;49.24
55656;BME280;41530;52.382;5.270;2023-04-09T11:39:17;102561.00;;;18.80;48.65
55656;BME280;41530;52.382;5.270;2023-04-09T11:46:25;102547.56;;;18.81;48.82
55656;BME280;41530;52.382;5.270;2023-04-09T11:49:41;102566.75;;;18.86;48.94
55656;BME280;41530;52.382;5.270;2023-04-09T11:53:02;102571.34;;;18.96;48.70
55656;BME280;41530;52.382;5.270;2023-04-09T11:56:12;102582.28;;;19.04;48.83
55656;BME280;41530;52.382;5.270;2023-04-09T11:59:39;102622.09;;;19.29;48.85
55656;BME280;41530;52.382;5.270;2023-04-09T12:03:01;102598.88;;;19.18;49.00
55656;BME280;41530;52.382;5.270;2023-04-09T12:06:21;102568.56;;;18.97;48.94
55656;BME280;41530;52.382;5.270;2023-04-09T12:09:45;102554.59;;;18.94;49.18
55656;BME280;41530;52.382;5.270;2023-04-09T12:30:37;102622.44;;;19.47;49.13
55656;BME280;41530;52.382;5.270;2023-04-09T12:33:44;102580.72;;;19.23;49.05
55656;BME280;41530;52.382;5.270;2023-04-09T12:37:08;102616.50;;;19.43;49.45
55656;BME280;41530;52.382;5.270;2023-04-09T12:40:25;102577.31;;;19.21;49.28
55656;BME280;41530;52.382;5.270;2023-04-09T12:43:18;102534.38;;;19.02;49.54
55656;BME280;41530;52.382;5.270;2023-04-09T12:52:44;102558.88;;;19.18;49.34
55656;BME280;41530;52.382;5.270;2023-04-09T12:56:07;102585.69;;;19.39;49.49
55656;BME280;41530;52.382;5.270;2023-04-09T12:58:59;102619.44;;;19.63;49.25
55656;BME280;41530;52.382;5.270;2023-04-09T13:02:21;102561.78;;;19.27;49.64
55656;BME280;41530;52.382;5.270;2023-04-09T13:05:35;102549.53;;;19.24;49.63
55656;BME280;41530;52.382;5.270;2023-04-09T13:08:32;102573.94;;;19.42;49.36
55656;BME280;41530;52.382;5.270;2023-04-09T13:11:44;102618.69;;;19.72;49.81
55656;BME280;41530;52.382;5.270;2023-04-09T13:14:45;102547.84;;;19.23;49.72
55656;BME280;41530;52.382;5.270;2023-04-09T13:18:17;102544.69;;;19.29;49.34
55656;BME280;41530;52.382;5.270;2023-04-09T13:21:48;102557.78;;;19.43;49.66
55656;BME280;41530;52.382;5.270;2023-04-09T13:24:59;102567.03;;;19.50;49.29
55656;BME280;41530;52.382;5.270;2023-04-09T13:28:27;102589.81;;;19.66;49.66
55656;BME280;41530;52.382;5.270;2023-04-09T13:35:18;102619.28;;;19.86;49.72
55656;BME280;41530;52.382;5.270;2023-04-09T13:42:00;102595.84;;;19.90;49.88
55656;BME280;41530;52.382;5.270;2023-04-09T13:49:00;102591.00;;;19.95;50.04
55656;BME280;41530;52.382;5.270;2023-04-09T13:56:19;102502.47;;;19.56;49.85
55656;BME280;41530;52.382;5.270;2023-04-09T13:59:33;102498.22;;;19.54;49.84
55656;BME280;41530;52.382;5.270;2023-04-09T14:03:09;102568.84;;;20.04;50.31
55656;BME280;41530;52.382;5.270;2023-04-09T14:09:25;102483.91;;;19.55;50.00
55656;BME280;41530;52.382;5.270;2023-04-09T14:16:15;102511.72;;;19.84;50.25
55656;BME280;41530;52.382;5.270;2023-04-09T14:19:48;102488.00;;;19.70;50.23
55656;BME280;41530;52.382;5.270;2023-04-09T14:23:25;102467.13;;;19.64;50.39
55656;BME280;41530;52.382;5.270;2023-04-09T14:27:28;102543.53;;;20.19;50.31
55656;BME280;41530;52.382;5.270;2023-04-09T14:30:31;102511.94;;;19.92;49.77
55656;BME280;41530;52.382;5.270;2023-04-09T14:33:55;102482.09;;;19.87;50.06
55656;BME280;41530;52.382;5.270;2023-04-09T14:37:22;102478.44;;;19.88;50.20
55656;BME280;41530;52.382;5.270;2023-04-09T14:40:13;102464.22;;;19.88;49.92
55656;BME280;41530;52.382;5.270;2023-04-09T14:43:43;102452.13;;;19.84;50.36
55656;BME280;41530;52.382;5.270;2023-04-09T14:50:40;102449.66;;;19.92;50.04
55656;BME280;41530;52.382;5.270;2023-04-09T15:00:48;102457.97;;;20.10;50.29